createdAt,value
2019-02-26T00:02:32.582Z,103313.92
2019-02-26T00:05:41.360Z,103318.22
2019-02-26T00:08:51.868Z,103316.50
2019-02-26T00:12:00.427Z,103317.73
2019-02-26T00:15:10.453Z,103310.78
2019-02-26T00:18:29.338Z,103304.32
2019-02-26T00:21:37.911Z,103311.98
2019-02-26T00:24:46.665Z,103318.25
2019-02-26T00:28:06.274Z,103326.06
2019-02-26T00:31:14.775Z,103326.45
2019-02-26T00:34:23.338Z,103313.05
2019-02-26T00:37:31.949Z,103312.02
2019-02-26T00:40:41.396Z,103313.17
2019-02-26T00:43:53.221Z,103311.45
2019-02-26T00:47:02.580Z,103310.23
2019-02-26T00:50:14.066Z,103303.13
2019-02-26T00:53:23.554Z,103314.39
2019-02-26T00:56:33.992Z,103316.00
2019-02-26T00:59:44.080Z,103307.44
2019-02-26T01:02:53.573Z,103301.41
2019-02-26T01:06:04.118Z,103304.66
2019-02-26T01:09:15.760Z,103306.50
2019-02-26T01:12:24.223Z,103322.69
2019-02-26T01:15:43.182Z,103313.73
2019-02-26T01:18:53.217Z,103314.13
2019-02-26T01:22:01.820Z,103321.44
2019-02-26T01:25:13.434Z,103321.91
2019-02-26T01:28:24.241Z,103322.15
2019-02-26T01:31:33.970Z,103314.84
2019-02-26T01:34:52.924Z,103317.03
2019-02-26T01:38:01.541Z,103308.19
2019-02-26T01:41:13.638Z,103305.84
2019-02-26T01:44:23.233Z,103291.44
2019-02-26T01:47:31.798Z,103284.64
2019-02-26T01:50:52.135Z,103291.72
2019-02-26T01:54:00.976Z,103283.52
2019-02-26T01:57:09.535Z,103295.17
2019-02-26T02:00:18.961Z,103306.61
2019-02-26T02:03:28.422Z,103301.02
2019-02-26T02:06:39.252Z,103299.77
2019-02-26T02:09:50.695Z,103292.98
2019-02-26T02:13:00.265Z,103285.72
2019-02-26T02:16:09.700Z,103288.39
2019-02-26T02:19:30.215Z,103287.19
2019-02-26T02:22:37.671Z,103282.38
2019-02-26T02:25:47.360Z,103276.36
2019-02-26T02:28:55.912Z,103273.60
2019-02-26T02:32:07.126Z,103273.17
2019-02-26T02:35:17.856Z,103279.15
2019-02-26T02:38:25.028Z,103294.53
2019-02-26T02:41:45.393Z,103283.05
2019-02-26T02:44:54.145Z,103283.96
2019-02-26T02:48:03.289Z,103290.96
2019-02-26T02:51:22.340Z,103287.31
2019-02-26T02:54:30.921Z,103290.74
2019-02-26T02:57:39.478Z,103281.72
2019-02-26T03:00:51.212Z,103283.56
2019-02-26T03:04:01.031Z,103272.42
2019-02-26T03:07:08.963Z,103278.20
2019-02-26T03:10:17.665Z,103276.83
2019-02-26T03:13:28.003Z,103272.78
2019-02-26T03:16:36.683Z,103270.25
2019-02-26T03:19:45.355Z,103265.61
2019-02-26T03:23:06.090Z,103265.94
2019-02-26T03:26:15.211Z,103272.03
2019-02-26T03:29:24.639Z,103276.41
2019-02-26T03:32:36.743Z,103281.06
2019-02-26T03:35:43.495Z,103283.02
2019-02-26T03:38:54.793Z,103280.15
2019-02-26T03:42:02.638Z,103283.02
2019-02-26T03:45:13.394Z,103290.67
2019-02-26T03:48:21.921Z,103287.91
2019-02-26T03:51:30.563Z,103283.83
2019-02-26T03:54:40.211Z,103285.55
2019-02-26T03:58:02.024Z,103271.05
2019-02-26T04:01:10.948Z,103280.83
2019-02-26T04:04:20.727Z,103290.09
2019-02-26T04:07:33.225Z,103292.03
2019-02-26T04:10:40.709Z,103297.05
2019-02-26T04:13:51.573Z,103294.23
2019-02-26T04:17:01.643Z,103286.41
2019-02-26T04:20:11.159Z,103283.91
2019-02-26T04:23:36.078Z,103288.32
2019-02-26T04:27:44.180Z,103284.06
2019-02-26T04:32:01.184Z,103280.69
2019-02-26T04:35:47.700Z,103289.03
2019-02-26T04:39:45.069Z,103289.06
2019-02-26T04:43:55.683Z,103285.27
2019-02-26T04:47:30.767Z,103294.08
2019-02-26T04:50:41.348Z,103290.40
2019-02-26T04:53:51.067Z,103295.13
2019-02-26T04:56:59.454Z,103298.57
2019-02-26T05:00:18.330Z,103287.23
2019-02-26T05:03:26.908Z,103280.36
2019-02-26T05:06:35.455Z,103272.53
2019-02-26T05:09:44.115Z,103260.81
2019-02-26T05:12:56.205Z,103266.20
2019-02-26T05:16:02.978Z,103269.17
2019-02-26T05:19:13.730Z,103262.25
2019-02-26T05:22:33.418Z,103267.69
2019-02-26T05:25:44.314Z,103269.80
2019-02-26T05:28:52.859Z,103264.80
2019-02-26T05:32:03.996Z,103254.48
2019-02-26T05:35:14.131Z,103253.97
2019-02-26T05:38:24.034Z,103250.14
2019-02-26T05:41:34.038Z,103262.22
2019-02-26T05:44:42.544Z,103260.50
2019-02-26T05:47:53.418Z,103260.42
2019-02-26T05:51:03.617Z,103265.50
2019-02-26T05:54:24.360Z,103266.33
2019-02-26T05:57:32.599Z,103263.27
2019-02-26T06:00:40.780Z,103255.45
2019-02-26T06:03:51.743Z,103256.20
2019-02-26T06:07:02.065Z,103255.25
2019-02-26T06:10:10.066Z,103246.66
2019-02-26T06:13:34.597Z,103241.98
2019-02-26T06:16:43.236Z,103235.55
2019-02-26T06:19:52.822Z,103242.46
2019-02-26T06:23:12.242Z,103240.77
2019-02-26T06:26:22.392Z,103241.55
2019-02-26T06:29:32.632Z,103236.78
2019-02-26T06:32:42.635Z,103244.59
2019-02-26T06:35:52.057Z,103236.27
2019-02-26T06:39:11.204Z,103229.02
2019-02-26T06:42:19.743Z,103236.78
2019-02-26T06:45:28.394Z,103242.23
2019-02-26T06:48:37.118Z,103238.88
2019-02-26T06:51:47.452Z,103242.37
2019-02-26T06:54:58.083Z,103241.16
2019-02-26T06:58:27.300Z,103245.16
2019-02-26T07:01:37.962Z,103255.91
2019-02-26T07:05:00.782Z,103263.11
2019-02-26T07:08:12.599Z,103258.86
2019-02-26T07:11:21.128Z,103256.78
2019-02-26T07:14:30.276Z,103266.75
2019-02-26T07:17:41.171Z,103267.69
2019-02-26T07:20:52.598Z,103280.31
2019-02-26T07:24:01.118Z,103270.97
2019-02-26T07:27:11.609Z,103271.40
2019-02-26T07:30:21.349Z,103270.19
2019-02-26T07:33:40.109Z,103278.32
2019-02-26T07:36:50.709Z,103280.69
2019-02-26T07:39:59.216Z,103287.50
2019-02-26T07:43:09.836Z,103289.04
2019-02-26T07:46:19.355Z,103278.52
2019-02-26T07:49:28.523Z,103291.19
2019-02-26T07:52:37.489Z,103286.32
2019-02-26T07:55:46.077Z,103273.09
2019-02-26T07:58:59.037Z,103267.92
2019-02-26T08:02:06.367Z,103260.08
2019-02-26T08:05:17.084Z,103261.83
2019-02-26T08:08:26.331Z,103257.91
2019-02-26T08:11:36.792Z,103263.53
2019-02-26T08:14:47.313Z,103264.86
2019-02-26T08:17:58.005Z,103266.60
2019-02-26T08:21:05.812Z,103267.89
2019-02-26T08:24:14.844Z,103263.02
2019-02-26T08:27:23.797Z,103261.65
2019-02-26T08:30:32.400Z,103261.73
2019-02-26T08:33:41.038Z,103269.05
2019-02-26T08:36:49.658Z,103276.75
2019-02-26T08:39:58.292Z,103274.81
2019-02-26T08:43:17.196Z,103266.20
2019-02-26T08:46:25.824Z,103273.14
2019-02-26T08:49:35.241Z,103270.83
2019-02-26T08:52:47.082Z,103271.64
2019-02-26T08:55:56.358Z,103273.30
2019-02-26T08:59:05.231Z,103266.27
2019-02-26T09:02:13.718Z,103257.22
2019-02-26T09:05:34.448Z,103249.94
2019-02-26T09:08:55.082Z,103251.36
2019-02-26T09:12:04.992Z,103247.30
2019-02-26T09:15:15.846Z,103250.70
2019-02-26T09:18:27.428Z,103253.47
2019-02-26T09:21:36.952Z,103255.23
2019-02-26T09:24:44.944Z,103264.78
2019-02-26T09:27:55.443Z,103250.78
2019-02-26T09:31:06.280Z,103255.77
2019-02-26T09:34:14.329Z,103258.59
2019-02-26T09:37:22.951Z,103257.99
2019-02-26T09:40:41.769Z,103259.70
2019-02-26T09:43:50.293Z,103263.23
2019-02-26T09:47:00.585Z,103268.41
2019-02-26T09:50:12.851Z,103276.15
2019-02-26T09:53:21.347Z,103294.17
2019-02-26T09:56:30.033Z,103293.48
2019-02-26T09:59:38.712Z,103295.50
2019-02-26T10:02:47.156Z,103283.36
2019-02-26T10:05:57.878Z,103288.94
2019-02-26T10:09:10.684Z,103289.23
2019-02-26T10:12:18.779Z,103299.07
2019-02-26T10:15:27.350Z,103300.55
2019-02-26T10:18:35.984Z,103292.39
2019-02-26T10:21:44.947Z,103287.51
2019-02-26T10:24:53.617Z,103282.97
2019-02-26T10:28:05.809Z,103282.08
2019-02-26T10:31:12.634Z,103283.08
2019-02-26T10:34:31.491Z,103282.66
2019-02-26T10:37:51.616Z,103282.39
2019-02-26T10:41:01.839Z,103282.75
2019-02-26T10:44:10.383Z,103286.39
2019-02-26T10:47:20.106Z,103284.73
2019-02-26T10:50:42.286Z,103283.77
2019-02-26T10:53:49.283Z,103291.50
2019-02-26T10:57:00.135Z,103291.84
2019-02-26T11:00:14.165Z,103293.19
2019-02-26T11:03:43.437Z,103291.95
2019-02-26T11:06:49.480Z,103297.23
2019-02-26T11:09:58.881Z,103299.75
2019-02-26T11:13:08.528Z,103304.23
2019-02-26T11:16:22.929Z,103313.53
2019-02-26T11:19:32.164Z,103304.31
2019-02-26T11:22:41.639Z,103302.06
2019-02-26T11:25:58.401Z,103312.34
2019-02-26T11:29:07.107Z,103315.62
2019-02-26T11:32:15.758Z,103310.95
2019-02-26T11:35:27.150Z,103310.28
2019-02-26T11:38:39.029Z,103311.11
2019-02-26T11:41:48.280Z,103302.57
2019-02-26T11:44:58.074Z,103309.52
2019-02-26T11:48:17.759Z,103312.11
2019-02-26T11:51:36.654Z,103308.92
2019-02-26T11:54:40.214Z,103313.58
2019-02-26T11:57:49.827Z,103317.31
2019-02-26T12:01:00.312Z,103319.33
2019-02-26T12:04:11.308Z,103323.52
2019-02-26T12:07:19.952Z,103324.30
2019-02-26T12:10:40.475Z,103313.52
2019-02-26T12:13:50.234Z,103315.13
2019-02-26T12:16:59.564Z,103307.08
2019-02-26T12:20:12.119Z,103317.62
2019-02-26T12:23:34.328Z,103309.39
2019-02-26T12:26:45.268Z,103307.94
2019-02-26T12:29:54.570Z,103297.14
2019-02-26T12:33:03.396Z,103286.73
2019-02-26T12:36:12.003Z,103286.19
2019-02-26T12:39:22.239Z,103292.98
2019-02-26T12:42:40.691Z,103275.45
2019-02-26T12:45:49.287Z,103281.50
2019-02-26T12:48:57.874Z,103273.50
2019-02-26T12:52:06.493Z,103265.55
2019-02-26T12:55:15.788Z,103260.52
2019-02-26T12:58:27.608Z,103256.55
2019-02-26T13:01:36.213Z,103256.98
2019-02-26T13:04:47.241Z,103251.19
2019-02-26T13:07:55.229Z,103247.55
2019-02-26T13:11:03.926Z,103237.98
2019-02-26T13:14:12.505Z,103232.39
2019-02-26T13:17:26.139Z,103230.36
2019-02-26T13:20:41.658Z,103228.05
2019-02-26T13:23:50.282Z,103229.98
2019-02-26T13:26:59.676Z,103228.30
2019-02-26T13:30:11.699Z,103222.91
2019-02-26T13:33:35.177Z,103219.16
2019-02-26T13:36:43.642Z,103218.63
2019-02-26T13:39:51.289Z,103211.37
2019-02-26T13:46:19.663Z,103209.55
2019-02-26T13:49:28.151Z,103207.08
2019-02-26T13:52:36.789Z,103201.36
2019-02-26T13:55:45.170Z,103210.16
2019-02-26T13:58:53.617Z,103205.07
2019-02-26T14:02:12.665Z,103202.87
2019-02-26T14:05:21.286Z,103202.24
2019-02-26T14:08:29.943Z,103193.95
2019-02-26T14:11:38.553Z,103190.88
2019-02-26T14:14:47.208Z,103193.33
2019-02-26T14:17:55.790Z,103187.41
2019-02-26T14:21:04.328Z,103170.11
2019-02-26T14:24:31.081Z,103156.58
2019-02-26T14:27:38.367Z,103153.69
2019-02-26T14:30:46.694Z,103148.25
2019-02-26T14:33:55.360Z,103134.84
2019-02-26T14:37:05.734Z,103132.66
2019-02-26T14:40:16.147Z,103126.16
2019-02-26T14:43:24.974Z,103123.23
2019-02-26T14:46:33.573Z,103131.65
2019-02-26T14:49:42.190Z,103124.97
2019-02-26T14:53:01.010Z,103122.29
2019-02-26T14:56:09.609Z,103114.89
2019-02-26T14:59:18.209Z,103122.66
2019-02-26T15:02:26.823Z,103124.73
2019-02-26T15:05:35.321Z,103131.80
2019-02-26T15:08:44.035Z,103128.58
2019-02-26T15:11:52.623Z,103131.14
2019-02-26T15:15:12.053Z,103120.63
2019-02-26T15:18:31.121Z,103120.70
2019-02-26T15:21:39.726Z,103125.61
2019-02-26T15:24:48.534Z,103129.80
2019-02-26T15:28:04.607Z,103132.70
2019-02-26T15:31:07.383Z,103136.55
2019-02-26T15:34:16.014Z,103135.16
2019-02-26T15:37:24.637Z,103137.66
2019-02-26T15:40:33.662Z,103134.23
2019-02-26T15:43:42.247Z,103127.41
2019-02-26T15:46:51.355Z,103124.50
2019-02-26T15:50:00.007Z,103122.88
2019-02-26T15:53:08.542Z,103120.02
2019-02-26T15:56:17.131Z,103122.81
2019-02-26T15:59:36.210Z,103115.61
2019-02-26T16:02:44.777Z,103118.23
2019-02-26T16:05:54.053Z,103114.47
2019-02-26T16:09:14.850Z,103111.52
2019-02-26T16:12:24.497Z,103118.55
2019-02-26T16:15:34.689Z,103121.09
2019-02-26T16:18:43.322Z,103122.39
2019-02-26T16:21:51.909Z,103121.91
2019-02-26T16:25:10.766Z,103112.86
2019-02-26T16:28:19.257Z,103121.70
2019-02-26T16:31:29.933Z,103124.72
2019-02-26T16:34:38.148Z,103133.89
2019-02-26T16:37:46.863Z,103131.30
2019-02-26T16:40:55.444Z,103130.87
2019-02-26T16:44:04.087Z,103129.13
2019-02-26T16:47:22.874Z,103129.37
2019-02-26T16:50:32.167Z,103129.55
2019-02-26T16:53:51.067Z,103128.27
2019-02-26T16:56:59.651Z,103137.27
2019-02-26T17:00:12.896Z,103136.16
2019-02-26T17:03:21.349Z,103140.33
2019-02-26T17:06:29.973Z,103147.08
2019-02-26T17:09:48.934Z,103154.88
2019-02-26T17:13:01.857Z,103155.17
2019-02-26T17:16:07.732Z,103158.27
2019-02-26T17:19:16.352Z,103151.54
2019-02-26T17:22:25.015Z,103151.27
2019-02-26T17:25:33.899Z,103153.63
2019-02-26T17:28:44.148Z,103157.30
2019-02-26T17:31:52.918Z,103164.36
2019-02-26T17:35:01.447Z,103164.56
2019-02-26T17:38:20.206Z,103158.41
2019-02-26T17:41:28.699Z,103162.45
2019-02-26T17:44:37.301Z,103160.86
2019-02-26T17:47:45.921Z,103155.37
2019-02-26T17:50:54.521Z,103162.50
2019-02-26T17:54:04.129Z,103166.92
2019-02-26T17:57:23.578Z,103164.27
2019-02-26T18:00:36.206Z,103165.67
2019-02-26T18:03:59.829Z,103155.75
2019-02-26T18:07:08.496Z,103155.52
2019-02-26T18:10:18.233Z,103159.44
2019-02-26T18:13:26.766Z,103159.14
2019-02-26T18:16:45.657Z,103156.67
2019-02-26T18:19:54.165Z,103165.88
2019-02-26T18:23:02.726Z,103162.96
2019-02-26T18:26:11.339Z,103159.72
2019-02-26T18:29:19.922Z,103153.73
2019-02-26T18:32:28.632Z,103163.38
2019-02-26T18:35:37.219Z,103153.93
2019-02-26T18:38:56.143Z,103158.28
2019-02-26T18:42:07.550Z,103156.36
2019-02-26T18:45:18.487Z,103144.69
2019-02-26T18:48:27.041Z,103147.29
2019-02-26T18:51:36.557Z,103144.31
2019-02-26T18:54:45.695Z,103141.36
2019-02-26T18:57:54.501Z,103133.61
2019-02-26T19:01:03.185Z,103124.13
2019-02-26T19:04:23.725Z,103128.50
2019-02-26T19:07:33.844Z,103128.16
2019-02-26T19:10:42.511Z,103119.11
2019-02-26T19:13:51.097Z,103120.47
2019-02-26T19:16:59.602Z,103117.51
2019-02-26T19:20:12.758Z,103111.47
2019-02-26T19:23:20.609Z,103115.88
2019-02-26T19:26:29.168Z,103115.03
2019-02-26T19:29:37.671Z,103113.75
2019-02-26T19:32:56.476Z,103109.90
2019-02-26T19:36:05.131Z,103108.60
2019-02-26T19:39:13.777Z,103102.59
2019-02-26T19:42:22.478Z,103107.36
2019-02-26T19:45:32.897Z,103107.81
2019-02-26T19:48:41.372Z,103100.48
2019-02-26T19:51:50.062Z,103105.66
2019-02-26T19:54:58.634Z,103104.84
2019-02-26T19:58:17.503Z,103093.59
2019-02-26T20:01:26.508Z,103090.59
2019-02-26T20:04:38.417Z,103088.48
2019-02-26T20:07:45.402Z,103084.59
2019-02-26T20:10:54.135Z,103078.98
2019-02-26T20:14:04.855Z,103073.80
2019-02-26T20:17:14.820Z,103075.54
2019-02-26T20:20:23.231Z,103073.39
2019-02-26T20:23:31.730Z,103076.84
2019-02-26T20:26:50.513Z,103071.67
2019-02-26T20:29:59.193Z,103070.83
2019-02-26T20:33:07.744Z,103075.53
2019-02-26T20:36:17.831Z,103074.66
2019-02-26T20:39:27.789Z,103067.76
2019-02-26T20:42:37.246Z,103060.00
2019-02-26T20:45:45.434Z,103057.39
2019-02-26T20:48:53.824Z,103058.69
2019-02-26T20:52:02.567Z,103058.27
2019-02-26T20:55:13.529Z,103056.95
2019-02-26T20:58:32.314Z,103057.83
2019-02-26T21:01:43.019Z,103048.73
2019-02-26T21:04:51.028Z,103047.42
2019-02-26T21:07:59.746Z,103049.55
2019-02-26T21:11:08.331Z,103043.52
2019-02-26T21:14:16.811Z,103045.67
2019-02-26T21:17:35.598Z,103042.66
2019-02-26T21:20:44.068Z,103043.50
2019-02-26T21:23:52.641Z,103044.36
2019-02-26T21:27:01.094Z,103039.62
2019-02-26T21:30:19.958Z,103037.45
2019-02-26T21:33:30.625Z,103032.25
2019-02-26T21:36:38.582Z,103032.27
2019-02-26T21:39:47.143Z,103034.40
2019-02-26T21:42:55.620Z,103026.63
2019-02-26T21:46:14.275Z,103032.22
2019-02-26T21:49:22.785Z,103022.72
2019-02-26T21:52:31.272Z,103027.88
2019-02-26T21:55:44.282Z,103033.05
2019-02-26T21:58:50.100Z,103033.03
2019-02-26T22:02:08.905Z,103028.70
2019-02-26T22:05:17.484Z,103028.27
2019-02-26T22:08:26.108Z,103020.92
2019-02-26T22:11:34.575Z,103024.38
2019-02-26T22:14:43.026Z,103018.33
2019-02-26T22:18:02.091Z,103008.81
2019-02-26T22:21:12.079Z,103021.73
2019-02-26T22:24:20.616Z,103013.08
2019-02-26T22:27:29.163Z,103011.33
2019-02-26T22:30:37.615Z,103004.03
2019-02-26T22:33:56.426Z,102999.69
2019-02-26T22:37:07.403Z,103003.57
2019-02-26T22:40:15.283Z,102999.26
2019-02-26T22:43:23.859Z,102995.80
2019-02-26T22:46:33.832Z,102991.88
2019-02-26T22:49:42.869Z,102989.26
2019-02-26T22:52:51.490Z,102997.41
2019-02-26T22:56:00.111Z,102995.28
2019-02-26T22:59:19.120Z,102985.81
2019-02-26T23:02:28.426Z,102991.34
2019-02-26T23:05:47.156Z,102989.23
2019-02-26T23:08:55.718Z,102988.75
2019-02-26T23:12:05.059Z,102992.17
2019-02-26T23:15:14.435Z,102989.19
2019-02-26T23:18:23.410Z,102983.51
2019-02-26T23:21:32.588Z,102986.45
2019-02-26T23:24:41.633Z,102991.22
2019-02-26T23:27:50.196Z,102989.84
2019-02-26T23:30:59.862Z,102989.88
2019-02-26T23:34:09.008Z,102982.54
2019-02-26T23:37:17.566Z,102985.95
2019-02-26T23:40:27.490Z,102987.25
2019-02-26T23:43:36.504Z,102985.46
2019-02-26T23:46:55.402Z,102986.76
2019-02-26T23:50:03.940Z,102986.27
2019-02-26T23:53:12.526Z,102984.88
2019-02-26T23:56:21.149Z,102982.24
2019-02-26T23:59:29.814Z,102983.91
